Marcel — ONDP — position and weather

sailwx.info

Track history (hours):
 
Tides and Currents Weather Stations Pressure Air Temp Water Temp Dewpoint Dewpoint Depression Visibility Wind Speed Wind Dir Waves Ship Positions

Marcel

Last reported at 2014-Nov-28 05:33 UTC. Time now 2014-Nov-28 07:03 UTC.
Position N 51°16' E 003°50'.

Length 88 m; draft 3.6 m.

Type: Cargo ship. MMSI: 205439000.

Date/timePositionNaut miles runAvg speedWind from/ knotsBaromVisibWave heightAir tempDewpointWater temp
2014-Nov-28 05:33N 51°16' E 003°50'4 4.2
2014-Nov-28 04:34N 51°20' E 003°49'1010.4
2014-Nov-28 03:34N 51°26' E 003°34'1211.9
2014-Nov-28 02:33N 51°24' E 003°16'1110.1
2014-Nov-28 01:30N 51°22' E 002°59'9 9.1
2014-Nov-28 00:33N 51°21' E 002°45'7 7.3
2014-Nov-27 23:33N 51°22' E 002°33'9 7.8
2014-Nov-27 22:24N 51°18' E 002°20'6 7.5
2014-Nov-27 21:33N 51°15' E 002°11'7 7.3
2014-Nov-27 20:34N 51°11' E 002°02'7 7.1
2014-Nov-27 19:34N 51°08' E 001°52'7 7.1
2014-Nov-27 18:33N 51°03' E 001°43'10510.0
2014-Nov-27 08:06N 49°44' W 000°05'610.0
2014-Nov-27 07:33N 49°38' W 000°06'9 9.0
2014-Nov-27 06:33N 49°29' W 000°06'1111.3
2014-Nov-27 05:33N 49°26' E 000°11'14 0.3
2014-Nov-25 09:23N 49°29' E 000°32'1012.4
2014-Nov-25 08:33N 49°26' E 000°16'1111.2
2014-Nov-25 07:33N 49°28' W 000°01'4 3.6
2014-Nov-25 06:30N 49°29' W 000°06'0 0.0
2014-Nov-25 05:30N 49°29' W 000°06'0 0.0
2014-Nov-25 04:33N 49°29' W 000°06'0 0.0
2014-Nov-25 03:33N 49°29' W 000°06'0 0.0
2014-Nov-25 02:33N 49°29' W 000°06'0 0.0
2014-Nov-25 01:33N 49°29' W 000°06'0 0.0
2014-Nov-25 00:33N 49°29' W 000°06'4 4.1
2014-Nov-24 23:33N 49°30' W 000°12'9 8.9
2014-Nov-24 22:33N 49°34' W 000°25'  
2014-Nov-22 18:14N 46°29' W 002°26'16 9.5
2014-Nov-22 16:33N 46°20' W 002°07'9 9.3
2014-Nov-22 15:33N 46°15' W 001°56'13 9.0
2014-Nov-22 14:05N 46°08' W 001°39'6 8.8
2014-Nov-22 13:26N 46°08' W 001°31'7 8.1
2014-Nov-22 12:33N 46°06' W 001°21'6 6.2
2014-Nov-22 11:33N 46°10' W 001°13'0 0.1
2014-Nov-22 10:32N 46°10' W 001°13'0 0.0
2014-Nov-22 09:18N 46°10' W 001°13'0 0.0
2014-Nov-22 08:28N 46°10' W 001°13'0 0.0
2014-Nov-22 07:32N 46°10' W 001°13'0 0.0
2014-Nov-22 06:31N 46°10' W 001°13'0 0.0
2014-Nov-22 05:30N 46°10' W 001°13'0 0.0
2014-Nov-22 04:26N 46°10' W 001°13'0 0.0
2014-Nov-22 03:30N 46°10' W 001°13'0 0.0
2014-Nov-22 02:31N 46°10' W 001°13'0 0.0
2014-Nov-22 01:31N 46°10' W 001°13'0 0.0
2014-Nov-22 00:32N 46°10' W 001°13'0 0.0
2014-Nov-21 23:32N 46°10' W 001°13'0 0.0
2014-Nov-21 22:33N 46°10' W 001°13'0 0.0
2014-Nov-21 21:31N 46°10' W 001°13'0 0.0
2014-Nov-21 20:31N 46°10' W 001°13'0 0.0
2014-Nov-21 19:32N 46°10' W 001°13'0 0.0
2014-Nov-21 18:31N 46°10' W 001°13'0 0.0
2014-Nov-21 17:30N 46°10' W 001°13'0 0.0
2014-Nov-21 16:32N 46°10' W 001°13'0 0.0
2014-Nov-21 15:29N 46°10' W 001°13'0 0.0
2014-Nov-21 14:32N 46°10' W 001°13'0 0.0
2014-Nov-21 13:33N 46°10' W 001°13'0 0.0
2014-Nov-21 12:32N 46°10' W 001°13'0 0.0
2014-Nov-21 11:33N 46°10' W 001°13'0 0.0
2014-Nov-21 10:33N 46°10' W 001°13'0 0.0
2014-Nov-21 09:32N 46°10' W 001°13'0 0.1
2014-Nov-21 08:31N 46°09' W 001°13'0 0.0
2014-Nov-21 07:32N 46°09' W 001°13'0 0.0
2014-Nov-21 06:32N 46°09' W 001°13'0 0.0
2014-Nov-21 05:32N 46°09' W 001°13'0 0.0
2014-Nov-21 04:31N 46°09' W 001°13'0 0.0
2014-Nov-21 03:32N 46°09' W 001°13'0 0.0
2014-Nov-21 02:30N 46°09' W 001°13'0 0.0
2014-Nov-21 01:31N 46°09' W 001°13'0 0.0
2014-Nov-21 00:30N 46°09' W 001°13'0 0.0
2014-Nov-20 23:33N 46°09' W 001°13'0 0.0
2014-Nov-20 22:31N 46°09' W 001°13'0 0.0
2014-Nov-20 21:33N 46°09' W 001°13'0 0.0
2014-Nov-20 20:33N 46°09' W 001°13'0 0.0
2014-Nov-20 19:32N 46°09' W 001°13'0 0.0
2014-Nov-20 18:28N 46°09' W 001°13'0 0.0
2014-Nov-20 17:31N 46°09' W 001°13'0 0.0
2014-Nov-20 16:33N 46°09' W 001°13'0 0.0
2014-Nov-20 15:30N 46°09' W 001°13'0 0.0
2014-Nov-20 14:33N 46°09' W 001°13'0 0.0
2014-Nov-20 13:31N 46°09' W 001°13'0 0.0
2014-Nov-20 12:32N 46°09' W 001°13'0 0.0
2014-Nov-20 11:32N 46°09' W 001°13'0 0.0
2014-Nov-20 10:32N 46°09' W 001°13'0 0.0
2014-Nov-20 09:31N 46°09' W 001°13'0 0.0
2014-Nov-20 08:31N 46°09' W 001°13'0 0.0
2014-Nov-20 07:33N 46°09' W 001°13'0 0.0
2014-Nov-20 06:31N 46°09' W 001°13'0 0.0
2014-Nov-20 05:32N 46°09' W 001°13'0 0.0
2014-Nov-20 04:32N 46°09' W 001°13'0 0.0
2014-Nov-20 03:31N 46°09' W 001°13'0 0.0
2014-Nov-20 02:33N 46°09' W 001°13'0 0.0
2014-Nov-20 01:31N 46°09' W 001°13'0 0.0
2014-Nov-20 00:31N 46°09' W 001°13'0 0.0
2014-Nov-19 23:31N 46°09' W 001°13'0 0.0
2014-Nov-19 22:33N 46°09' W 001°13'0 0.0
2014-Nov-19 21:31N 46°09' W 001°13'0 0.0
2014-Nov-19 20:32N 46°09' W 001°13'0 0.0
2014-Nov-19 19:33N 46°09' W 001°13'0 0.0
2014-Nov-19 18:31N 46°09' W 001°13'0 0.0
2014-Nov-19 17:33N 46°09' W 001°13'0 0.0
2014-Nov-19 16:33N 46°09' W 001°13'0 0.0
2014-Nov-19 15:31N 46°09' W 001°13'0 0.0
2014-Nov-19 14:33N 46°09' W 001°13'0 0.0
2014-Nov-19 13:33N 46°09' W 001°13'0 0.0
2014-Nov-19 12:24N 46°09' W 001°13'0 0.0
2014-Nov-19 11:30N 46°09' W 001°13'0 0.0
2014-Nov-19 10:25N 46°09' W 001°13'0 0.0
2014-Nov-19 09:33N 46°09' W 001°13'0 0.0
2014-Nov-19 08:33N 46°09' W 001°13'0 0.0
2014-Nov-19 07:33N 46°09' W 001°13'0 0.0
2014-Nov-19 06:33N 46°09' W 001°13'0 0.0
2014-Nov-19 05:32N 46°09' W 001°13'0 0.0
2014-Nov-19 04:33N 46°09' W 001°13'0 0.0
2014-Nov-19 03:33N 46°09' W 001°13'0 0.0
2014-Nov-19 02:27N 46°09' W 001°13'0 0.0
2014-Nov-19 01:33N 46°09' W 001°13'0 0.0
2014-Nov-19 00:32N 46°09' W 001°13'0 0.0
2014-Nov-18 23:31N 46°09' W 001°13'4 3.9
2014-Nov-18 22:34N 46°06' W 001°16'11 9.9
2014-Nov-18 21:24N 46°07' W 001°32'  
Track history (hours):
 
Tides and Currents Weather Stations Pressure Air Temp Water Temp Dewpoint Dewpoint Depression Visibility Wind Speed Wind Dir Waves Ship Positions

Marcel

Last reported at 2014-Nov-28 05:33 UTC. Time now 2014-Nov-28 07:03 UTC.
Position N 51°16' E 003°50'.

Length 88 m; draft 3.6 m.

Type: Cargo ship. MMSI: 205439000.

Date/timePositionNaut miles runAvg speedWind from/ knotsBaromVisibWave heightAir tempDewpointWater temp
2014-Nov-28 05:33N 51°16' E 003°50'4 4.2
2014-Nov-28 04:34N 51°20' E 003°49'1010.4
2014-Nov-28 03:34N 51°26' E 003°34'1211.9
2014-Nov-28 02:33N 51°24' E 003°16'1110.1
2014-Nov-28 01:30N 51°22' E 002°59'9 9.1
2014-Nov-28 00:33N 51°21' E 002°45'7 7.3
2014-Nov-27 23:33N 51°22' E 002°33'9 7.8
2014-Nov-27 22:24N 51°18' E 002°20'6 7.5
2014-Nov-27 21:33N 51°15' E 002°11'7 7.3
2014-Nov-27 20:34N 51°11' E 002°02'7 7.1
2014-Nov-27 19:34N 51°08' E 001°52'7 7.1
2014-Nov-27 18:33N 51°03' E 001°43'10510.0
2014-Nov-27 08:06N 49°44' W 000°05'610.0
2014-Nov-27 07:33N 49°38' W 000°06'9 9.0
2014-Nov-27 06:33N 49°29' W 000°06'1111.3
2014-Nov-27 05:33N 49°26' E 000°11'14 0.3
2014-Nov-25 09:23N 49°29' E 000°32'1012.4
2014-Nov-25 08:33N 49°26' E 000°16'1111.2
2014-Nov-25 07:33N 49°28' W 000°01'4 3.6
2014-Nov-25 06:30N 49°29' W 000°06'0 0.0
2014-Nov-25 05:30N 49°29' W 000°06'0 0.0
2014-Nov-25 04:33N 49°29' W 000°06'0 0.0
2014-Nov-25 03:33N 49°29' W 000°06'0 0.0
2014-Nov-25 02:33N 49°29' W 000°06'0 0.0
2014-Nov-25 01:33N 49°29' W 000°06'0 0.0
2014-Nov-25 00:33N 49°29' W 000°06'4 4.1
2014-Nov-24 23:33N 49°30' W 000°12'9 8.9
2014-Nov-24 22:33N 49°34' W 000°25'  
2014-Nov-22 18:14N 46°29' W 002°26'16 9.5
2014-Nov-22 16:33N 46°20' W 002°07'9 9.3
2014-Nov-22 15:33N 46°15' W 001°56'13 9.0
2014-Nov-22 14:05N 46°08' W 001°39'6 8.8
2014-Nov-22 13:26N 46°08' W 001°31'7 8.1
2014-Nov-22 12:33N 46°06' W 001°21'6 6.2
2014-Nov-22 11:33N 46°10' W 001°13'0 0.1
2014-Nov-22 10:32N 46°10' W 001°13'0 0.0
2014-Nov-22 09:18N 46°10' W 001°13'0 0.0
2014-Nov-22 08:28N 46°10' W 001°13'0 0.0
2014-Nov-22 07:32N 46°10' W 001°13'0 0.0
2014-Nov-22 06:31N 46°10' W 001°13'0 0.0
2014-Nov-22 05:30N 46°10' W 001°13'0 0.0
2014-Nov-22 04:26N 46°10' W 001°13'0 0.0
2014-Nov-22 03:30N 46°10' W 001°13'0 0.0
2014-Nov-22 02:31N 46°10' W 001°13'0 0.0
2014-Nov-22 01:31N 46°10' W 001°13'0 0.0
2014-Nov-22 00:32N 46°10' W 001°13'0 0.0
2014-Nov-21 23:32N 46°10' W 001°13'0 0.0
2014-Nov-21 22:33N 46°10' W 001°13'0 0.0
2014-Nov-21 21:31N 46°10' W 001°13'0 0.0
2014-Nov-21 20:31N 46°10' W 001°13'0 0.0
2014-Nov-21 19:32N 46°10' W 001°13'0 0.0
2014-Nov-21 18:31N 46°10' W 001°13'0 0.0
2014-Nov-21 17:30N 46°10' W 001°13'0 0.0
2014-Nov-21 16:32N 46°10' W 001°13'0 0.0
2014-Nov-21 15:29N 46°10' W 001°13'0 0.0
2014-Nov-21 14:32N 46°10' W 001°13'0 0.0
2014-Nov-21 13:33N 46°10' W 001°13'0 0.0
2014-Nov-21 12:32N 46°10' W 001°13'0 0.0
2014-Nov-21 11:33N 46°10' W 001°13'0 0.0
2014-Nov-21 10:33N 46°10' W 001°13'0 0.0
2014-Nov-21 09:32N 46°10' W 001°13'0 0.1
2014-Nov-21 08:31N 46°09' W 001°13'0 0.0
2014-Nov-21 07:32N 46°09' W 001°13'0 0.0
2014-Nov-21 06:32N 46°09' W 001°13'0 0.0
2014-Nov-21 05:32N 46°09' W 001°13'0 0.0
2014-Nov-21 04:31N 46°09' W 001°13'0 0.0
2014-Nov-21 03:32N 46°09' W 001°13'0 0.0
2014-Nov-21 02:30N 46°09' W 001°13'0 0.0
2014-Nov-21 01:31N 46°09' W 001°13'0 0.0
2014-Nov-21 00:30N 46°09' W 001°13'0 0.0
2014-Nov-20 23:33N 46°09' W 001°13'0 0.0
2014-Nov-20 22:31N 46°09' W 001°13'0 0.0
2014-Nov-20 21:33N 46°09' W 001°13'0 0.0
2014-Nov-20 20:33N 46°09' W 001°13'0 0.0
2014-Nov-20 19:32N 46°09' W 001°13'0 0.0
2014-Nov-20 18:28N 46°09' W 001°13'0 0.0
2014-Nov-20 17:31N 46°09' W 001°13'0 0.0
2014-Nov-20 16:33N 46°09' W 001°13'0 0.0
2014-Nov-20 15:30N 46°09' W 001°13'0 0.0
2014-Nov-20 14:33N 46°09' W 001°13'0 0.0
2014-Nov-20 13:31N 46°09' W 001°13'0 0.0
2014-Nov-20 12:32N 46°09' W 001°13'0 0.0
2014-Nov-20 11:32N 46°09' W 001°13'0 0.0
2014-Nov-20 10:32N 46°09' W 001°13'0 0.0
2014-Nov-20 09:31N 46°09' W 001°13'0 0.0
2014-Nov-20 08:31N 46°09' W 001°13'0 0.0
2014-Nov-20 07:33N 46°09' W 001°13'0 0.0
2014-Nov-20 06:31N 46°09' W 001°13'0 0.0
2014-Nov-20 05:32N 46°09' W 001°13'0 0.0
2014-Nov-20 04:32N 46°09' W 001°13'0 0.0
2014-Nov-20 03:31N 46°09' W 001°13'0 0.0
2014-Nov-20 02:33N 46°09' W 001°13'0 0.0
2014-Nov-20 01:31N 46°09' W 001°13'0 0.0
2014-Nov-20 00:31N 46°09' W 001°13'0 0.0
2014-Nov-19 23:31N 46°09' W 001°13'0 0.0
2014-Nov-19 22:33N 46°09' W 001°13'0 0.0
2014-Nov-19 21:31N 46°09' W 001°13'0 0.0
2014-Nov-19 20:32N 46°09' W 001°13'0 0.0
2014-Nov-19 19:33N 46°09' W 001°13'0 0.0
2014-Nov-19 18:31N 46°09' W 001°13'0 0.0
2014-Nov-19 17:33N 46°09' W 001°13'0 0.0
2014-Nov-19 16:33N 46°09' W 001°13'0 0.0
2014-Nov-19 15:31N 46°09' W 001°13'0 0.0
2014-Nov-19 14:33N 46°09' W 001°13'0 0.0
2014-Nov-19 13:33N 46°09' W 001°13'0 0.0
2014-Nov-19 12:24N 46°09' W 001°13'0 0.0
2014-Nov-19 11:30N 46°09' W 001°13'0 0.0
2014-Nov-19 10:25N 46°09' W 001°13'0 0.0
2014-Nov-19 09:33N 46°09' W 001°13'0 0.0
2014-Nov-19 08:33N 46°09' W 001°13'0 0.0
2014-Nov-19 07:33N 46°09' W 001°13'0 0.0
2014-Nov-19 06:33N 46°09' W 001°13'0 0.0
2014-Nov-19 05:32N 46°09' W 001°13'0 0.0
2014-Nov-19 04:33N 46°09' W 001°13'0 0.0
2014-Nov-19 03:33N 46°09' W 001°13'0 0.0
2014-Nov-19 02:27N 46°09' W 001°13'0 0.0
2014-Nov-19 01:33N 46°09' W 001°13'0 0.0
2014-Nov-19 00:32N 46°09' W 001°13'0 0.0
2014-Nov-18 23:31N 46°09' W 001°13'4 3.9
2014-Nov-18 22:34N 46°06' W 001°16'11 9.9
2014-Nov-18 21:24N 46°07' W 001°32'  

Dump ship's entire track history